createdAt,value
2023-01-23T00:01:15.425Z,37.63
2023-01-23T00:03:42.203Z,35.58
2023-01-23T00:06:14.376Z,38.78
2023-01-23T00:08:42.986Z,38.60
2023-01-23T00:11:13.460Z,33.80
2023-01-23T00:13:40.187Z,47.13
2023-01-23T00:16:08.659Z,36.17
2023-01-23T00:18:35.806Z,33.08
2023-01-23T00:21:07.938Z,35.80
2023-01-23T00:23:34.771Z,38.88
2023-01-23T00:26:09.108Z,37.08
2023-01-23T00:28:35.852Z,39.33
2023-01-23T00:31:07.938Z,32.47
2023-01-23T00:33:35.470Z,31.40
2023-01-23T00:36:02.595Z,39.22
2023-01-23T00:38:29.331Z,34.05
2023-01-23T00:40:56.432Z,37.25
2023-01-23T00:43:24.366Z,40.50
2023-01-23T00:45:51.843Z,25.77
2023-01-23T00:48:18.771Z,34.78
2023-01-23T00:50:45.471Z,35.85
2023-01-23T00:53:13.082Z,34.28
2023-01-23T00:55:40.645Z,36.13
2023-01-23T00:58:08.427Z,31.55
2023-01-23T01:00:36.499Z,27.10
2023-01-23T01:03:03.413Z,36.33
2023-01-23T01:05:30.120Z,37.28
2023-01-23T01:07:56.766Z,30.20
2023-01-23T01:10:23.369Z,40.60
2023-01-23T01:12:50.021Z,35.25
2023-01-23T01:15:16.721Z,37.88
2023-01-23T01:17:43.366Z,41.80
2023-01-23T01:20:11.376Z,36.92
2023-01-23T01:22:38.108Z,40.70
2023-01-23T01:25:05.052Z,38.33
2023-01-23T01:27:31.757Z,35.83
2023-01-23T01:29:58.442Z,34.25
2023-01-23T01:32:25.277Z,33.58
2023-01-23T01:34:52.693Z,39.35
2023-01-23T01:37:22.642Z,31.52
2023-01-23T01:39:49.450Z,30.42
2023-01-23T01:42:16.441Z,38.13
2023-01-23T01:44:54.886Z,34.88
2023-01-23T01:47:21.691Z,32.70
2023-01-23T01:49:50.131Z,30.20
2023-01-23T01:52:20.184Z,42.17
2023-01-23T01:54:53.263Z,38.60
2023-01-23T01:57:25.370Z,34.05
2023-01-23T01:59:55.110Z,39.55
2023-01-23T02:02:36.346Z,38.33
2023-01-23T02:05:11.323Z,41.50
2023-01-23T02:07:43.848Z,36.38
2023-01-23T02:10:11.563Z,41.33
2023-01-23T02:12:38.786Z,38.15
2023-01-23T02:15:07.535Z,25.75
2023-01-23T02:17:36.971Z,44.88
2023-01-23T02:20:19.698Z,33.40
2023-01-23T02:23:16.201Z,38.20
2023-01-23T02:25:47.753Z,38.10
2023-01-23T02:28:16.753Z,37.72
2023-01-23T02:30:48.028Z,33.17
2023-01-23T02:33:20.792Z,37.42
2023-01-23T02:35:48.141Z,37.72
2023-01-23T02:38:15.077Z,34.05
2023-01-23T02:40:42.784Z,34.30
2023-01-23T02:43:14.294Z,31.88
2023-01-23T02:45:41.122Z,35.28
2023-01-23T02:48:08.857Z,34.85
2023-01-23T02:50:35.538Z,36.33
2023-01-23T02:53:02.155Z,35.85
2023-01-23T02:55:33.239Z,42.55
2023-01-23T02:58:19.884Z,36.22
2023-01-23T03:00:47.485Z,52.55
2023-01-23T03:03:15.815Z,37.47
2023-01-23T03:05:42.727Z,38.03
2023-01-23T03:08:09.449Z,36.13
2023-01-23T03:10:36.117Z,37.88
2023-01-23T03:13:04.563Z,35.55
2023-01-23T03:15:31.702Z,28.33
2023-01-23T03:17:58.333Z,34.47
2023-01-23T03:20:27.126Z,44.05
2023-01-23T03:22:54.655Z,40.33
2023-01-23T03:25:21.540Z,45.05
2023-01-23T03:27:48.874Z,34.78
2023-01-23T03:30:17.029Z,42.60
2023-01-23T03:32:44.695Z,32.70
2023-01-23T03:35:16.606Z,44.58
2023-01-23T03:37:44.053Z,37.25
2023-01-23T03:40:42.294Z,36.65
2023-01-23T03:43:09.655Z,36.35
2023-01-23T03:45:36.433Z,42.72
2023-01-23T03:48:03.098Z,38.75
2023-01-23T03:50:29.715Z,39.92
2023-01-23T03:52:56.488Z,38.88
2023-01-23T03:55:23.069Z,39.05
2023-01-23T03:57:49.716Z,40.88
2023-01-23T04:00:17.986Z,48.42
2023-01-23T04:02:44.982Z,38.30
2023-01-23T04:05:11.852Z,43.58
2023-01-23T04:07:38.937Z,36.03
2023-01-23T04:10:05.797Z,42.17
2023-01-23T04:12:32.577Z,41.10
2023-01-23T04:14:59.281Z,34.72
2023-01-23T04:17:26.041Z,38.67
2023-01-23T04:19:52.674Z,41.33
2023-01-23T04:22:19.440Z,36.03
2023-01-23T04:24:46.024Z,45.20
2023-01-23T04:27:12.656Z,37.20
2023-01-23T04:29:39.364Z,29.45
2023-01-23T04:32:06.022Z,36.80
2023-01-23T04:34:32.907Z,39.58
2023-01-23T04:36:59.482Z,43.10
2023-01-23T04:39:26.136Z,33.78
2023-01-23T04:41:52.778Z,41.38
2023-01-23T04:44:22.660Z,43.88
2023-01-23T04:46:51.023Z,38.78
2023-01-23T04:49:18.825Z,34.25
2023-01-23T04:51:48.138Z,35.92
2023-01-23T04:54:15.546Z,33.90
2023-01-23T04:56:42.977Z,39.55
2023-01-23T04:59:10.158Z,39.60
2023-01-23T05:01:37.285Z,39.35
2023-01-23T05:04:04.751Z,41.47
2023-01-23T05:06:31.867Z,37.70
2023-01-23T05:08:58.594Z,37.15
2023-01-23T05:11:25.285Z,35.55
2023-01-23T05:13:52.085Z,45.67
2023-01-23T05:16:18.831Z,49.72
2023-01-23T05:18:45.521Z,45.22
2023-01-23T05:21:12.180Z,51.00
2023-01-23T05:23:38.807Z,45.28
2023-01-23T05:26:05.503Z,43.45
2023-01-23T05:28:32.160Z,49.22
2023-01-23T05:30:58.828Z,49.92
2023-01-23T05:33:25.875Z,53.92
2023-01-23T05:35:52.493Z,50.95
2023-01-23T05:38:19.188Z,43.40
2023-01-23T05:40:45.825Z,40.83
2023-01-23T05:43:15.245Z,43.10
2023-01-23T05:45:42.393Z,44.63
2023-01-23T05:48:09.307Z,50.35
2023-01-23T05:50:36.180Z,45.97
2023-01-23T05:53:02.983Z,45.28
2023-01-23T05:55:29.699Z,40.75
2023-01-23T05:57:56.417Z,47.50
2023-01-23T06:00:23.380Z,46.17
2023-01-23T06:02:50.312Z,43.45
2023-01-23T06:05:17.130Z,47.92
2023-01-23T06:07:44.288Z,44.00
2023-01-23T06:10:11.005Z,50.88
2023-01-23T06:12:37.708Z,49.00
2023-01-23T06:15:04.992Z,52.30
2023-01-23T06:17:31.808Z,50.55
2023-01-23T06:19:58.835Z,47.53
2023-01-23T06:22:25.506Z,46.80
2023-01-23T06:24:52.701Z,54.05
2023-01-23T06:27:19.453Z,46.83
2023-01-23T06:29:46.172Z,49.53
2023-01-23T06:32:13.339Z,52.38
2023-01-23T06:34:40.103Z,62.03
2023-01-23T06:37:06.840Z,49.03
2023-01-23T06:39:34.191Z,46.70
2023-01-23T06:42:00.959Z,53.55
2023-01-23T06:44:27.871Z,40.22
2023-01-23T06:46:54.513Z,44.28
2023-01-23T06:49:21.320Z,57.10
2023-01-23T06:51:48.190Z,46.30
2023-01-23T06:54:14.868Z,52.88
2023-01-23T06:56:41.518Z,56.78
2023-01-23T06:59:08.337Z,48.05
2023-01-23T07:01:35.353Z,55.17
2023-01-23T07:04:02.037Z,55.92
2023-01-23T07:06:30.984Z,58.70
2023-01-23T07:08:57.643Z,49.42
2023-01-23T07:11:24.430Z,64.47
2023-01-23T07:13:51.310Z,43.60
2023-01-23T07:16:17.981Z,46.33
2023-01-23T07:18:45.578Z,52.92
2023-01-23T07:21:12.432Z,50.08
2023-01-23T07:23:39.128Z,47.67
2023-01-23T07:26:09.723Z,55.92
2023-01-23T07:28:37.388Z,55.50
2023-01-23T07:31:04.696Z,61.88
2023-01-23T07:33:32.001Z,54.30
2023-01-23T07:35:58.837Z,54.55
2023-01-23T07:38:26.035Z,54.83
2023-01-23T07:40:53.299Z,60.58
2023-01-23T07:43:20.000Z,46.75
2023-01-23T07:45:46.732Z,48.55
2023-01-23T07:48:13.401Z,58.97
2023-01-23T07:50:40.228Z,64.20
2023-01-23T07:53:07.230Z,57.97
2023-01-23T07:55:34.286Z,59.47
2023-01-23T07:58:01.620Z,55.67
2023-01-23T08:00:30.209Z,37.70
2023-01-23T08:02:57.384Z,51.40
2023-01-23T08:05:24.427Z,59.10
2023-01-23T08:08:00.718Z,63.30
2023-01-23T08:10:34.791Z,80.15
2023-01-23T08:13:01.569Z,51.90
2023-01-23T08:15:28.200Z,48.15
2023-01-23T08:17:54.950Z,52.60
2023-01-23T08:20:23.037Z,50.10
2023-01-23T08:22:49.888Z,53.70
2023-01-23T08:25:16.670Z,48.80
2023-01-23T08:27:43.525Z,53.63
2023-01-23T08:30:10.843Z,54.28
2023-01-23T08:32:37.597Z,54.65
2023-01-23T08:35:04.934Z,52.05
2023-01-23T08:37:33.199Z,60.50
2023-01-23T08:39:59.949Z,55.30
2023-01-23T08:42:26.775Z,51.85
2023-01-23T08:44:53.380Z,56.05
2023-01-23T08:47:20.132Z,56.47
2023-01-23T08:49:46.870Z,58.33
2023-01-23T08:52:13.543Z,54.17
2023-01-23T08:54:40.200Z,71.55
2023-01-23T08:57:07.095Z,55.63
2023-01-23T08:59:33.817Z,62.90
2023-01-23T09:02:00.621Z,52.10
2023-01-23T09:04:27.489Z,53.15
2023-01-23T09:06:55.364Z,66.50
2023-01-23T09:09:22.066Z,50.53
2023-01-23T09:11:48.718Z,58.97
2023-01-23T09:14:15.325Z,68.85
2023-01-23T09:16:42.073Z,60.40
2023-01-23T09:19:10.336Z,61.35
2023-01-23T09:21:37.074Z,58.03
2023-01-23T09:24:04.171Z,56.22
2023-01-23T09:26:30.806Z,61.40
2023-01-23T09:28:57.502Z,55.10
2023-01-23T09:31:24.282Z,56.38
2023-01-23T09:33:51.190Z,58.83
2023-01-23T09:36:17.841Z,76.38
2023-01-23T09:38:44.487Z,68.97
2023-01-23T09:41:18.752Z,63.58
2023-01-23T09:44:01.300Z,63.75
2023-01-23T09:46:37.396Z,59.60
2023-01-23T09:49:43.195Z,61.13
2023-01-23T09:52:15.266Z,69.63
2023-01-23T09:54:50.530Z,61.85
2023-01-23T09:57:33.013Z,58.50
2023-01-23T10:00:03.680Z,65.93
2023-01-23T10:02:30.462Z,69.50
2023-01-23T10:04:58.675Z,60.05
2023-01-23T10:07:34.412Z,62.90
2023-01-23T10:10:19.878Z,63.50
2023-01-23T10:13:02.775Z,68.30
2023-01-23T10:16:14.013Z,57.55
2023-01-23T10:19:12.589Z,61.42
2023-01-23T10:21:43.483Z,66.63
2023-01-23T10:24:25.177Z,68.03
2023-01-23T10:26:53.599Z,53.90
2023-01-23T10:29:34.647Z,61.45
2023-01-23T10:32:04.455Z,53.45
2023-01-23T10:34:47.344Z,69.57
2023-01-23T10:37:25.382Z,66.00
2023-01-23T10:40:02.472Z,60.10
2023-01-23T10:42:29.390Z,65.90
2023-01-23T10:44:56.035Z,68.05
2023-01-23T10:47:38.703Z,60.05
2023-01-23T10:50:06.248Z,59.83
2023-01-23T10:52:36.796Z,55.40
2023-01-23T10:55:06.377Z,65.93
2023-01-23T10:57:46.034Z,75.10
2023-01-23T11:00:27.652Z,56.75
2023-01-23T11:02:54.686Z,56.95
2023-01-23T11:05:51.969Z,55.95
2023-01-23T11:08:40.806Z,55.15
2023-01-23T11:11:16.735Z,66.78
2023-01-23T11:13:45.125Z,31.90
2023-01-23T11:16:18.588Z,56.63
2023-01-23T11:19:08.408Z,38.50
2023-01-23T11:21:37.740Z,54.95
2023-01-23T11:24:30.649Z,56.72
2023-01-23T11:27:15.757Z,58.10
2023-01-23T11:30:08.229Z,61.10
2023-01-23T11:33:01.020Z,59.10
2023-01-23T11:35:55.836Z,54.55
2023-01-23T11:38:52.002Z,62.13
2023-01-23T11:41:23.182Z,61.25
2023-01-23T11:43:49.843Z,59.00
2023-01-23T11:46:33.741Z,61.25
2023-01-23T11:49:07.079Z,47.97
2023-01-23T11:51:49.551Z,52.80
2023-01-23T11:54:42.747Z,53.90
2023-01-23T11:57:44.686Z,49.17
2023-01-23T12:00:14.352Z,48.97
2023-01-23T12:03:14.979Z,50.17
2023-01-23T12:05:46.325Z,59.85
2023-01-23T12:08:34.117Z,51.15
2023-01-23T12:11:16.333Z,46.05
2023-01-23T12:14:00.004Z,46.20
2023-01-23T12:16:50.471Z,46.65
2023-01-23T12:19:35.844Z,45.20
2023-01-23T12:22:42.889Z,38.20
2023-01-23T12:25:18.483Z,47.55
2023-01-23T12:27:50.361Z,46.60
2023-01-23T12:30:29.113Z,51.15
2023-01-23T12:33:05.280Z,47.78
2023-01-23T12:35:50.101Z,47.83
2023-01-23T12:38:25.339Z,45.78
2023-01-23T12:41:23.413Z,51.00
2023-01-23T12:44:18.635Z,47.95
2023-01-23T12:47:04.238Z,43.50
2023-01-23T12:49:44.972Z,41.80
2023-01-23T12:52:23.486Z,46.25
2023-01-23T12:55:06.266Z,41.22
2023-01-23T12:57:52.438Z,49.63
2023-01-23T13:00:44.284Z,38.33
2023-01-23T13:03:46.026Z,42.80
2023-01-23T13:06:34.918Z,37.95
2023-01-23T13:09:26.648Z,43.63
2023-01-23T13:12:11.578Z,39.13
2023-01-23T13:15:03.587Z,40.63
2023-01-23T13:17:58.813Z,29.63
2023-01-23T13:20:56.283Z,42.28
2023-01-23T13:23:22.876Z,39.35
2023-01-23T13:25:50.877Z,47.55
2023-01-23T13:28:49.678Z,39.10
2023-01-23T13:31:50.703Z,38.65
2023-01-23T13:34:17.610Z,39.67
2023-01-23T13:36:45.626Z,40.58
2023-01-23T13:39:18.005Z,38.25
2023-01-23T13:41:48.841Z,35.97
2023-01-23T13:44:41.630Z,33.55
2023-01-23T14:22:11.023Z,31.30
2023-01-23T14:24:44.734Z,26.73
2023-01-23T14:27:44.437Z,27.03
2023-01-23T14:30:21.202Z,31.60
2023-01-23T14:32:47.806Z,28.27
2023-01-23T14:35:30.081Z,32.70
2023-01-23T14:38:07.822Z,28.88
2023-01-23T14:40:48.821Z,32.13
2023-01-23T14:43:23.125Z,26.45
2023-01-23T14:45:57.324Z,32.75
2023-01-23T14:48:24.140Z,34.70
2023-01-23T14:51:02.675Z,28.98
2023-01-23T14:53:29.395Z,27.42
2023-01-23T14:55:59.801Z,29.10
2023-01-23T14:58:28.604Z,34.95
2023-01-23T15:00:55.995Z,30.13
2023-01-23T15:03:58.422Z,29.60
2023-01-23T15:06:25.312Z,28.13
2023-01-23T15:08:52.219Z,29.73
2023-01-23T15:11:26.941Z,30.10
2023-01-23T15:16:29.118Z,32.45
2023-01-23T15:19:03.134Z,26.70
2023-01-23T15:21:32.563Z,34.53
2023-01-23T15:24:14.863Z,34.22
2023-01-23T15:26:44.194Z,34.17
2023-01-23T15:29:10.854Z,28.63
2023-01-23T15:31:40.733Z,27.40
2023-01-23T15:34:32.738Z,36.53
2023-01-23T15:37:09.824Z,33.28
2023-01-23T15:39:56.265Z,33.25
2023-01-23T15:42:30.374Z,30.60
2023-01-23T15:45:01.163Z,34.92
2023-01-23T15:47:31.404Z,29.40
2023-01-23T15:50:01.533Z,28.33
2023-01-23T15:52:31.410Z,35.95
2023-01-23T15:55:01.497Z,26.25
2023-01-23T15:57:28.195Z,32.33
2023-01-23T15:59:54.963Z,28.38
2023-01-23T16:02:33.534Z,27.80
2023-01-23T16:05:02.583Z,23.13
2023-01-23T16:07:37.800Z,32.00
2023-01-23T16:10:15.450Z,29.85
2023-01-23T16:12:42.527Z,28.23
2023-01-23T16:15:17.625Z,34.30
2023-01-23T16:17:44.971Z,30.20
2023-01-23T16:20:23.006Z,26.92
2023-01-23T16:22:52.921Z,27.40
2023-01-23T16:25:43.362Z,29.52
2023-01-23T16:28:19.419Z,30.70
2023-01-23T16:30:47.390Z,33.78
2023-01-23T16:33:14.526Z,28.42
2023-01-23T16:35:41.697Z,31.30
2023-01-23T16:38:24.994Z,36.63
2023-01-23T16:40:53.292Z,24.17
2023-01-23T16:43:21.490Z,25.45
2023-01-23T16:45:48.227Z,26.70
2023-01-23T16:48:25.395Z,27.58
2023-01-23T16:51:01.221Z,25.13
2023-01-23T16:53:38.949Z,15.50
2023-01-23T16:56:06.885Z,28.23
2023-01-23T16:58:39.921Z,21.42
2023-01-23T17:01:21.624Z,22.80
2023-01-23T17:04:00.553Z,25.05
2023-01-23T17:06:27.510Z,27.85
2023-01-23T17:08:56.096Z,30.52
2023-01-23T17:11:42.489Z,26.08
2023-01-23T17:14:17.689Z,34.13
2023-01-23T17:16:45.444Z,25.27
2023-01-23T17:19:41.832Z,20.05
2023-01-23T17:22:24.385Z,29.63
2023-01-23T17:24:51.115Z,29.75
2023-01-23T17:27:17.918Z,28.08
2023-01-23T17:29:44.766Z,30.08
2023-01-23T17:32:35.786Z,32.63
2023-01-23T17:35:06.508Z,29.80
2023-01-23T17:37:34.921Z,31.85
2023-01-23T17:40:01.815Z,35.95
2023-01-23T17:42:28.437Z,35.75
2023-01-23T17:44:55.073Z,33.05
2023-01-23T17:47:21.881Z,33.03
2023-01-23T17:49:54.618Z,44.90
2023-01-23T17:52:21.868Z,33.65
2023-01-23T17:54:49.565Z,32.05
2023-01-23T17:57:16.237Z,33.47
2023-01-23T17:59:42.966Z,35.35
2023-01-23T18:02:30.067Z,31.95
2023-01-23T18:04:56.786Z,34.55
2023-01-23T18:07:23.454Z,30.50
2023-01-23T18:09:50.851Z,36.67
2023-01-23T18:12:29.281Z,32.22
2023-01-23T18:15:19.818Z,30.70
2023-01-23T18:18:35.210Z,35.22
2023-01-23T18:21:03.547Z,37.88
2023-01-23T18:23:37.208Z,33.65
2023-01-23T18:26:22.596Z,34.72
2023-01-23T18:29:03.451Z,34.78
2023-01-23T18:32:01.420Z,31.60
2023-01-23T18:34:53.005Z,37.85
2023-01-23T18:37:56.346Z,35.05
2023-01-23T18:40:44.082Z,39.72
2023-01-23T18:43:22.993Z,38.28
2023-01-23T18:45:50.348Z,37.85
2023-01-23T18:48:25.095Z,43.30
2023-01-23T18:51:08.312Z,38.97
2023-01-23T18:53:53.706Z,35.97
2023-01-23T18:56:34.115Z,34.67
2023-01-23T18:59:26.809Z,42.55
2023-01-23T19:01:58.294Z,35.65
2023-01-23T19:04:38.278Z,38.45
2023-01-23T19:07:20.609Z,30.13
2023-01-23T19:09:48.286Z,40.50
2023-01-23T19:12:31.308Z,43.85
2023-01-23T19:15:10.997Z,33.88
2023-01-23T19:17:42.035Z,42.33
2023-01-23T19:20:28.214Z,35.60
2023-01-23T19:23:19.949Z,42.33
2023-01-23T19:25:47.993Z,42.13
2023-01-23T19:28:15.668Z,38.88
2023-01-23T19:30:43.108Z,40.72
2023-01-23T19:33:16.828Z,34.72
2023-01-23T19:35:44.812Z,34.43
2023-01-23T19:38:11.509Z,43.35
2023-01-23T19:40:38.456Z,35.08
2023-01-23T19:43:14.052Z,39.53
2023-01-23T19:45:41.546Z,41.33
2023-01-23T19:48:09.039Z,23.30
2023-01-23T19:50:35.749Z,40.58
2023-01-23T19:53:02.737Z,34.22
2023-01-23T19:55:32.543Z,32.38
2023-01-23T19:57:59.529Z,28.70
2023-01-23T20:00:29.591Z,34.85
2023-01-23T20:02:56.889Z,31.10
2023-01-23T20:05:24.444Z,35.42
2023-01-23T20:07:51.181Z,26.92
2023-01-23T20:10:18.026Z,29.65
2023-01-23T20:12:52.599Z,35.85
2023-01-23T20:15:22.262Z,30.80
2023-01-23T20:17:49.308Z,35.60
2023-01-23T20:20:16.627Z,38.17
2023-01-23T20:22:44.181Z,38.95
2023-01-23T20:25:13.430Z,33.28
2023-01-23T20:27:41.118Z,37.42
2023-01-23T20:30:12.379Z,37.60
2023-01-23T20:32:39.270Z,33.13
2023-01-23T20:35:06.516Z,37.90
2023-01-23T20:37:33.287Z,45.05
2023-01-23T20:39:59.997Z,33.97
2023-01-23T20:42:26.703Z,38.55
2023-01-23T20:44:53.371Z,34.67
2023-01-23T20:47:20.026Z,40.05
2023-01-23T20:49:46.637Z,40.83
2023-01-23T20:52:31.900Z,35.10
2023-01-23T20:54:58.532Z,42.67
2023-01-23T20:57:45.198Z,38.58
2023-01-23T21:00:12.374Z,40.67
2023-01-23T21:02:39.074Z,44.40
2023-01-23T21:05:05.859Z,33.03
2023-01-23T21:07:33.220Z,40.75
2023-01-23T21:09:59.877Z,38.50
2023-01-23T21:12:26.598Z,30.02
2023-01-23T21:14:53.273Z,38.17
2023-01-23T21:17:20.085Z,33.83
2023-01-23T21:19:47.757Z,38.13
2023-01-23T21:22:14.440Z,38.72
2023-01-23T21:24:41.165Z,32.53
2023-01-23T21:27:07.886Z,33.08
2023-01-23T21:29:34.704Z,33.65
2023-01-23T21:32:01.464Z,34.28
2023-01-23T21:34:28.305Z,42.35
2023-01-23T21:36:55.011Z,39.42
2023-01-23T21:39:22.022Z,35.45
2023-01-23T21:41:48.707Z,35.97
2023-01-23T21:44:15.449Z,41.75
2023-01-23T21:46:42.226Z,30.90
2023-01-23T21:49:09.070Z,38.00
2023-01-23T21:51:36.311Z,37.95
2023-01-23T21:54:03.221Z,37.28
2023-01-23T21:56:30.480Z,25.23
2023-01-23T21:58:57.157Z,41.80
2023-01-23T22:01:57.635Z,40.05
2023-01-23T22:04:24.294Z,41.35
2023-01-23T22:06:55.029Z,38.20
2023-01-23T22:09:24.754Z,37.95
2023-01-23T22:11:51.847Z,27.83
2023-01-23T22:14:19.296Z,36.05
2023-01-23T22:16:49.483Z,35.53
2023-01-23T22:19:19.711Z,28.83
2023-01-23T22:21:47.032Z,40.17
2023-01-23T22:24:14.838Z,43.20
2023-01-23T22:26:41.985Z,42.35
2023-01-23T22:29:08.765Z,34.38
2023-01-23T22:31:35.731Z,37.28
2023-01-23T22:34:02.669Z,35.42
2023-01-23T22:36:29.424Z,36.83
2023-01-23T22:38:56.354Z,37.67
2023-01-23T22:41:23.761Z,40.42
2023-01-23T22:43:54.502Z,40.10
2023-01-23T22:46:21.984Z,40.80
2023-01-23T22:48:49.092Z,41.40
2023-01-23T22:51:24.944Z,39.03
2023-01-23T22:53:52.696Z,36.70
2023-01-23T22:56:19.514Z,39.67
2023-01-23T22:58:47.557Z,32.60
2023-01-23T23:01:15.042Z,28.42
2023-01-23T23:03:42.148Z,38.65
2023-01-23T23:06:12.193Z,36.92
2023-01-23T23:08:39.484Z,35.85
2023-01-23T23:11:13.392Z,31.73
2023-01-23T23:13:41.404Z,32.70
2023-01-23T23:16:31.171Z,37.28
2023-01-23T23:19:01.026Z,44.60
2023-01-23T23:21:31.577Z,37.40
2023-01-23T23:23:59.653Z,37.55
2023-01-23T23:26:28.127Z,37.70
2023-01-23T23:28:55.400Z,37.25
2023-01-23T23:31:22.247Z,40.47
2023-01-23T23:33:48.940Z,35.30
2023-01-23T23:36:15.527Z,40.05
2023-01-23T23:38:42.187Z,38.65
2023-01-23T23:41:12.938Z,22.48
2023-01-23T23:43:40.146Z,35.95
2023-01-23T23:46:08.357Z,33.72
2023-01-23T23:48:36.479Z,36.13
2023-01-23T23:51:05.974Z,40.58
2023-01-23T23:53:33.491Z,39.08
2023-01-23T23:56:00.258Z,41.72
2023-01-23T23:58:27.105Z,35.63
